sensor_id;sensor_type;location;lat;lon;timestamp;P1;durP1;ratioP1;P2;durP2;ratioP2
56233;SDS011;42141;53.240;6.580;2023-02-15T00:01:57;28.95;;;17.55;;
56233;SDS011;42141;53.240;6.580;2023-02-15T00:04:23;133.13;;;21.40;;
56233;SDS011;42141;53.240;6.580;2023-02-15T00:07:10;30.90;;;18.35;;
56233;SDS011;42141;53.240;6.580;2023-02-15T00:09:35;31.85;;;18.20;;
56233;SDS011;42141;53.240;6.580;2023-02-15T00:12:02;81.00;;;19.13;;
56233;SDS011;42141;53.240;6.580;2023-02-15T00:14:27;42.83;;;17.40;;
56233;SDS011;42141;53.240;6.580;2023-02-15T00:16:53;66.78;;;18.30;;
56233;SDS011;42141;53.240;6.580;2023-02-15T00:19:20;141.38;;;19.75;;
56233;SDS011;42141;53.240;6.580;2023-02-15T00:21:47;63.70;;;17.50;;
56233;SDS011;42141;53.240;6.580;2023-02-15T00:24:15;28.65;;;17.58;;
56233;SDS011;42141;53.240;6.580;2023-02-15T00:26:43;27.58;;;16.75;;
56233;SDS011;42141;53.240;6.580;2023-02-15T00:29:10;29.98;;;18.70;;
56233;SDS011;42141;53.240;6.580;2023-02-15T00:31:36;32.33;;;18.65;;
56233;SDS011;42141;53.240;6.580;2023-02-15T00:34:06;36.67;;;18.10;;
56233;SDS011;42141;53.240;6.580;2023-02-15T00:36:38;50.05;;;20.88;;
56233;SDS011;42141;53.240;6.580;2023-02-15T00:39:04;67.25;;;22.92;;
56233;SDS011;42141;53.240;6.580;2023-02-15T00:41:31;30.42;;;17.15;;
56233;SDS011;42141;53.240;6.580;2023-02-15T00:43:57;27.05;;;16.30;;
56233;SDS011;42141;53.240;6.580;2023-02-15T00:46:23;29.77;;;16.75;;
56233;SDS011;42141;53.240;6.580;2023-02-15T00:48:48;27.35;;;18.35;;
56233;SDS011;42141;53.240;6.580;2023-02-15T00:51:14;28.05;;;17.58;;
56233;SDS011;42141;53.240;6.580;2023-02-15T00:53:40;27.02;;;17.30;;
56233;SDS011;42141;53.240;6.580;2023-02-15T00:56:06;27.75;;;16.67;;
56233;SDS011;42141;53.240;6.580;2023-02-15T00:58:32;31.83;;;18.80;;
56233;SDS011;42141;53.240;6.580;2023-02-15T01:01:08;27.90;;;17.38;;
56233;SDS011;42141;53.240;6.580;2023-02-15T01:03:36;26.20;;;18.00;;
56233;SDS011;42141;53.240;6.580;2023-02-15T01:06:02;28.27;;;17.50;;
56233;SDS011;42141;53.240;6.580;2023-02-15T01:08:28;26.75;;;16.17;;
56233;SDS011;42141;53.240;6.580;2023-02-15T01:10:54;25.45;;;17.13;;
56233;SDS011;42141;53.240;6.580;2023-02-15T01:13:20;29.63;;;17.63;;
56233;SDS011;42141;53.240;6.580;2023-02-15T01:15:52;26.70;;;16.88;;
56233;SDS011;42141;53.240;6.580;2023-02-15T01:18:19;25.88;;;17.52;;
56233;SDS011;42141;53.240;6.580;2023-02-15T01:20:46;23.33;;;16.02;;
56233;SDS011;42141;53.240;6.580;2023-02-15T01:23:12;29.25;;;17.05;;
56233;SDS011;42141;53.240;6.580;2023-02-15T01:25:38;24.60;;;16.33;;
56233;SDS011;42141;53.240;6.580;2023-02-15T01:28:04;24.88;;;15.93;;
56233;SDS011;42141;53.240;6.580;2023-02-15T01:30:30;25.35;;;16.58;;
56233;SDS011;42141;53.240;6.580;2023-02-15T01:32:56;26.17;;;17.45;;
56233;SDS011;42141;53.240;6.580;2023-02-15T01:35:22;30.02;;;18.20;;
56233;SDS011;42141;53.240;6.580;2023-02-15T01:37:48;27.75;;;16.02;;
56233;SDS011;42141;53.240;6.580;2023-02-15T01:40:15;28.45;;;16.95;;
56233;SDS011;42141;53.240;6.580;2023-02-15T01:42:41;24.70;;;16.17;;
56233;SDS011;42141;53.240;6.580;2023-02-15T01:45:16;24.08;;;15.60;;
56233;SDS011;42141;53.240;6.580;2023-02-15T01:47:52;24.90;;;16.45;;
56233;SDS011;42141;53.240;6.580;2023-02-15T01:53:01;28.10;;;18.73;;
56233;SDS011;42141;53.240;6.580;2023-02-15T01:55:34;28.65;;;17.65;;
56233;SDS011;42141;53.240;6.580;2023-02-15T01:58:04;23.67;;;16.25;;
56233;SDS011;42141;53.240;6.580;2023-02-15T02:00:31;28.98;;;17.55;;
56233;SDS011;42141;53.240;6.580;2023-02-15T02:02:59;28.80;;;17.02;;
56233;SDS011;42141;53.240;6.580;2023-02-15T02:05:25;26.02;;;16.77;;
56233;SDS011;42141;53.240;6.580;2023-02-15T02:07:51;29.00;;;16.92;;
56233;SDS011;42141;53.240;6.580;2023-02-15T02:10:21;26.23;;;16.20;;
56233;SDS011;42141;53.240;6.580;2023-02-15T02:12:49;26.23;;;15.73;;
56233;SDS011;42141;53.240;6.580;2023-02-15T02:15:30;28.85;;;16.08;;
56233;SDS011;42141;53.240;6.580;2023-02-15T02:26:54;35.38;;;19.58;;
56233;SDS011;42141;53.240;6.580;2023-02-15T02:35:30;28.98;;;17.85;;
56233;SDS011;42141;53.240;6.580;2023-02-15T02:38:03;32.38;;;18.85;;
56233;SDS011;42141;53.240;6.580;2023-02-15T02:40:52;35.65;;;20.42;;
56233;SDS011;42141;53.240;6.580;2023-02-15T02:43:33;37.17;;;19.88;;
56233;SDS011;42141;53.240;6.580;2023-02-15T02:46:10;35.13;;;18.30;;
56233;SDS011;42141;53.240;6.580;2023-02-15T02:48:40;31.85;;;18.75;;
56233;SDS011;42141;53.240;6.580;2023-02-15T02:51:06;33.58;;;19.92;;
56233;SDS011;42141;53.240;6.580;2023-02-15T02:53:31;32.33;;;19.58;;
56233;SDS011;42141;53.240;6.580;2023-02-15T02:58:34;27.42;;;17.73;;
56233;SDS011;42141;53.240;6.580;2023-02-15T03:04:15;61.47;;;19.45;;
56233;SDS011;42141;53.240;6.580;2023-02-15T03:06:55;113.82;;;21.60;;
56233;SDS011;42141;53.240;6.580;2023-02-15T03:09:33;105.65;;;22.13;;
56233;SDS011;42141;53.240;6.580;2023-02-15T03:12:11;40.47;;;18.88;;
56233;SDS011;42141;53.240;6.580;2023-02-15T03:17:40;72.65;;;21.90;;
56233;SDS011;42141;53.240;6.580;2023-02-15T03:20:18;56.47;;;19.27;;
56233;SDS011;42141;53.240;6.580;2023-02-15T03:23:12;52.38;;;21.05;;
56233;SDS011;42141;53.240;6.580;2023-02-15T03:25:42;31.38;;;18.15;;
56233;SDS011;42141;53.240;6.580;2023-02-15T03:30:41;31.55;;;18.80;;
56233;SDS011;42141;53.240;6.580;2023-02-15T03:33:10;31.10;;;19.52;;
56233;SDS011;42141;53.240;6.580;2023-02-15T03:35:46;30.85;;;19.40;;
56233;SDS011;42141;53.240;6.580;2023-02-15T03:38:36;28.75;;;18.80;;
56233;SDS011;42141;53.240;6.580;2023-02-15T03:41:12;31.83;;;19.77;;
56233;SDS011;42141;53.240;6.580;2023-02-15T03:43:49;28.60;;;17.98;;
56233;SDS011;42141;53.240;6.580;2023-02-15T03:46:21;23.63;;;16.58;;
56233;SDS011;42141;53.240;6.580;2023-02-15T03:49:07;26.58;;;17.15;;
56233;SDS011;42141;53.240;6.580;2023-02-15T03:51:46;26.52;;;17.23;;
56233;SDS011;42141;53.240;6.580;2023-02-15T03:54:16;23.42;;;16.52;;
56233;SDS011;42141;53.240;6.580;2023-02-15T03:57:07;25.27;;;18.48;;
56233;SDS011;42141;53.240;6.580;2023-02-15T04:00:08;26.13;;;18.55;;
56233;SDS011;42141;53.240;6.580;2023-02-15T04:05:56;26.85;;;17.60;;
56233;SDS011;42141;53.240;6.580;2023-02-15T04:08:22;28.35;;;17.60;;
56233;SDS011;42141;53.240;6.580;2023-02-15T04:11:08;24.83;;;18.15;;
56233;SDS011;42141;53.240;6.580;2023-02-15T04:13:33;25.08;;;17.02;;
56233;SDS011;42141;53.240;6.580;2023-02-15T04:15:59;26.88;;;18.40;;
56233;SDS011;42141;53.240;6.580;2023-02-15T04:18:31;27.33;;;18.65;;
56233;SDS011;42141;53.240;6.580;2023-02-15T04:21:17;26.48;;;17.73;;
56233;SDS011;42141;53.240;6.580;2023-02-15T04:24:03;24.67;;;16.13;;
56233;SDS011;42141;53.240;6.580;2023-02-15T04:26:47;25.73;;;18.02;;
56233;SDS011;42141;53.240;6.580;2023-02-15T04:29:14;26.58;;;17.90;;
56233;SDS011;42141;53.240;6.580;2023-02-15T04:31:40;24.90;;;16.83;;
56233;SDS011;42141;53.240;6.580;2023-02-15T04:34:07;26.52;;;17.42;;
56233;SDS011;42141;53.240;6.580;2023-02-15T04:36:33;31.35;;;19.15;;
56233;SDS011;42141;53.240;6.580;2023-02-15T04:38:59;28.83;;;19.73;;
56233;SDS011;42141;53.240;6.580;2023-02-15T04:41:25;30.88;;;19.65;;
56233;SDS011;42141;53.240;6.580;2023-02-15T04:43:50;32.97;;;19.42;;
56233;SDS011;42141;53.240;6.580;2023-02-15T04:46:16;28.25;;;18.23;;
56233;SDS011;42141;53.240;6.580;2023-02-15T04:48:42;28.15;;;17.88;;
56233;SDS011;42141;53.240;6.580;2023-02-15T04:51:08;29.77;;;17.95;;
56233;SDS011;42141;53.240;6.580;2023-02-15T04:53:34;28.80;;;17.55;;
56233;SDS011;42141;53.240;6.580;2023-02-15T04:56:00;36.58;;;20.30;;
56233;SDS011;42141;53.240;6.580;2023-02-15T04:58:26;30.38;;;19.25;;
56233;SDS011;42141;53.240;6.580;2023-02-15T05:00:55;32.45;;;19.55;;
56233;SDS011;42141;53.240;6.580;2023-02-15T05:03:21;31.95;;;19.63;;
56233;SDS011;42141;53.240;6.580;2023-02-15T05:05:47;35.63;;;20.42;;
56233;SDS011;42141;53.240;6.580;2023-02-15T05:08:13;37.67;;;20.80;;
56233;SDS011;42141;53.240;6.580;2023-02-15T05:10:39;34.25;;;19.55;;
56233;SDS011;42141;53.240;6.580;2023-02-15T05:13:05;38.25;;;20.25;;
56233;SDS011;42141;53.240;6.580;2023-02-15T05:15:30;30.95;;;19.75;;
56233;SDS011;42141;53.240;6.580;2023-02-15T05:17:56;39.75;;;21.13;;
56233;SDS011;42141;53.240;6.580;2023-02-15T05:20:22;32.28;;;19.73;;
56233;SDS011;42141;53.240;6.580;2023-02-15T05:22:53;32.90;;;20.35;;
56233;SDS011;42141;53.240;6.580;2023-02-15T05:25:20;42.78;;;22.10;;
56233;SDS011;42141;53.240;6.580;2023-02-15T05:28:04;35.58;;;20.13;;
56233;SDS011;42141;53.240;6.580;2023-02-15T05:30:58;40.67;;;22.27;;
56233;SDS011;42141;53.240;6.580;2023-02-15T05:33:35;43.03;;;23.50;;
56233;SDS011;42141;53.240;6.580;2023-02-15T05:36:07;40.58;;;23.73;;
56233;SDS011;42141;53.240;6.580;2023-02-15T05:38:33;45.08;;;26.08;;
56233;SDS011;42141;53.240;6.580;2023-02-15T05:40:59;44.97;;;25.80;;
56233;SDS011;42141;53.240;6.580;2023-02-15T05:43:25;43.58;;;25.13;;
56233;SDS011;42141;53.240;6.580;2023-02-15T05:45:51;46.20;;;26.15;;
56233;SDS011;42141;53.240;6.580;2023-02-15T05:48:18;40.88;;;24.65;;
56233;SDS011;42141;53.240;6.580;2023-02-15T05:50:45;43.40;;;24.10;;
56233;SDS011;42141;53.240;6.580;2023-02-15T05:53:11;41.97;;;24.10;;
56233;SDS011;42141;53.240;6.580;2023-02-15T05:55:38;35.35;;;21.65;;
56233;SDS011;42141;53.240;6.580;2023-02-15T05:58:05;41.08;;;23.58;;
56233;SDS011;42141;53.240;6.580;2023-02-15T06:00:31;41.35;;;24.15;;
56233;SDS011;42141;53.240;6.580;2023-02-15T06:02:57;37.78;;;22.77;;
56233;SDS011;42141;53.240;6.580;2023-02-15T06:05:22;40.33;;;23.42;;
56233;SDS011;42141;53.240;6.580;2023-02-15T06:07:48;40.40;;;23.88;;
56233;SDS011;42141;53.240;6.580;2023-02-15T06:10:14;37.83;;;23.08;;
56233;SDS011;42141;53.240;6.580;2023-02-15T06:12:40;41.15;;;23.77;;
56233;SDS011;42141;53.240;6.580;2023-02-15T06:15:06;59.47;;;27.42;;
56233;SDS011;42141;53.240;6.580;2023-02-15T06:17:31;52.03;;;28.27;;
56233;SDS011;42141;53.240;6.580;2023-02-15T06:19:57;57.53;;;30.17;;
56233;SDS011;42141;53.240;6.580;2023-02-15T06:22:23;63.60;;;31.92;;
56233;SDS011;42141;53.240;6.580;2023-02-15T06:24:48;86.10;;;37.95;;
56233;SDS011;42141;53.240;6.580;2023-02-15T06:27:14;176.77;;;61.03;;
56233;SDS011;42141;53.240;6.580;2023-02-15T06:29:40;182.13;;;70.07;;
56233;SDS011;42141;53.240;6.580;2023-02-15T06:32:06;131.90;;;53.72;;
56233;SDS011;42141;53.240;6.580;2023-02-15T06:34:31;98.32;;;43.97;;
56233;SDS011;42141;53.240;6.580;2023-02-15T06:36:57;91.20;;;42.65;;
56233;SDS011;42141;53.240;6.580;2023-02-15T06:39:23;74.38;;;36.47;;
56233;SDS011;42141;53.240;6.580;2023-02-15T06:41:49;70.20;;;36.30;;
56233;SDS011;42141;53.240;6.580;2023-02-15T06:44:15;57.80;;;31.77;;
56233;SDS011;42141;53.240;6.580;2023-02-15T06:46:40;67.93;;;34.50;;
56233;SDS011;42141;53.240;6.580;2023-02-15T06:49:06;65.20;;;33.15;;
56233;SDS011;42141;53.240;6.580;2023-02-15T06:51:32;65.47;;;34.95;;
56233;SDS011;42141;53.240;6.580;2023-02-15T06:53:59;60.90;;;32.65;;
56233;SDS011;42141;53.240;6.580;2023-02-15T06:56:25;64.38;;;34.33;;
56233;SDS011;42141;53.240;6.580;2023-02-15T06:58:51;63.63;;;34.33;;
56233;SDS011;42141;53.240;6.580;2023-02-15T07:01:17;65.20;;;33.30;;
56233;SDS011;42141;53.240;6.580;2023-02-15T07:03:43;67.28;;;34.83;;
56233;SDS011;42141;53.240;6.580;2023-02-15T07:06:09;62.67;;;32.67;;
56233;SDS011;42141;53.240;6.580;2023-02-15T07:08:36;65.00;;;36.08;;
56233;SDS011;42141;53.240;6.580;2023-02-15T07:11:03;61.05;;;33.83;;
56233;SDS011;42141;53.240;6.580;2023-02-15T07:13:47;64.82;;;34.97;;
56233;SDS011;42141;53.240;6.580;2023-02-15T07:16:13;69.45;;;36.83;;
56233;SDS011;42141;53.240;6.580;2023-02-15T07:18:39;66.65;;;35.28;;
56233;SDS011;42141;53.240;6.580;2023-02-15T07:21:05;68.10;;;35.33;;
56233;SDS011;42141;53.240;6.580;2023-02-15T07:23:35;61.40;;;35.22;;
56233;SDS011;42141;53.240;6.580;2023-02-15T07:26:01;65.03;;;35.05;;
56233;SDS011;42141;53.240;6.580;2023-02-15T07:28:28;66.00;;;33.92;;
56233;SDS011;42141;53.240;6.580;2023-02-15T07:30:53;62.25;;;33.72;;
56233;SDS011;42141;53.240;6.580;2023-02-15T07:33:19;73.00;;;36.75;;
56233;SDS011;42141;53.240;6.580;2023-02-15T07:35:51;66.15;;;36.50;;
56233;SDS011;42141;53.240;6.580;2023-02-15T07:38:19;65.82;;;34.42;;
56233;SDS011;42141;53.240;6.580;2023-02-15T07:40:45;63.55;;;36.45;;
56233;SDS011;42141;53.240;6.580;2023-02-15T07:43:11;64.07;;;35.67;;
56233;SDS011;42141;53.240;6.580;2023-02-15T07:45:37;69.55;;;36.15;;
56233;SDS011;42141;53.240;6.580;2023-02-15T07:48:03;65.45;;;35.00;;
56233;SDS011;42141;53.240;6.580;2023-02-15T07:50:29;72.70;;;36.58;;
56233;SDS011;42141;53.240;6.580;2023-02-15T07:52:55;67.55;;;34.53;;
56233;SDS011;42141;53.240;6.580;2023-02-15T07:55:21;66.85;;;36.20;;
56233;SDS011;42141;53.240;6.580;2023-02-15T07:57:48;64.00;;;35.33;;
56233;SDS011;42141;53.240;6.580;2023-02-15T08:00:15;63.63;;;33.53;;
56233;SDS011;42141;53.240;6.580;2023-02-15T08:02:49;53.90;;;31.55;;
56233;SDS011;42141;53.240;6.580;2023-02-15T08:05:37;54.72;;;31.45;;
56233;SDS011;42141;53.240;6.580;2023-02-15T08:08:03;63.78;;;33.72;;
56233;SDS011;42141;53.240;6.580;2023-02-15T08:10:29;68.00;;;34.75;;
56233;SDS011;42141;53.240;6.580;2023-02-15T08:13:14;60.17;;;33.33;;
56233;SDS011;42141;53.240;6.580;2023-02-15T08:15:39;61.95;;;33.47;;
56233;SDS011;42141;53.240;6.580;2023-02-15T08:18:12;63.22;;;35.40;;
56233;SDS011;42141;53.240;6.580;2023-02-15T08:20:38;68.15;;;35.20;;
56233;SDS011;42141;53.240;6.580;2023-02-15T08:23:03;62.00;;;34.33;;
56233;SDS011;42141;53.240;6.580;2023-02-15T08:25:29;64.40;;;33.35;;
56233;SDS011;42141;53.240;6.580;2023-02-15T08:27:55;71.30;;;35.70;;
56233;SDS011;42141;53.240;6.580;2023-02-15T08:30:20;64.47;;;35.65;;
56233;SDS011;42141;53.240;6.580;2023-02-15T08:32:46;64.95;;;34.30;;
56233;SDS011;42141;53.240;6.580;2023-02-15T08:35:12;60.88;;;33.15;;
56233;SDS011;42141;53.240;6.580;2023-02-15T08:37:37;61.22;;;32.92;;
56233;SDS011;42141;53.240;6.580;2023-02-15T08:40:03;57.33;;;32.33;;
56233;SDS011;42141;53.240;6.580;2023-02-15T08:42:32;61.03;;;33.65;;
56233;SDS011;42141;53.240;6.580;2023-02-15T08:44:58;56.33;;;33.33;;
56233;SDS011;42141;53.240;6.580;2023-02-15T08:47:24;60.10;;;31.50;;
56233;SDS011;42141;53.240;6.580;2023-02-15T08:49:49;56.63;;;30.58;;
56233;SDS011;42141;53.240;6.580;2023-02-15T08:52:16;58.22;;;30.90;;
56233;SDS011;42141;53.240;6.580;2023-02-15T08:54:42;54.50;;;31.88;;
56233;SDS011;42141;53.240;6.580;2023-02-15T08:57:08;47.45;;;28.52;;
56233;SDS011;42141;53.240;6.580;2023-02-15T08:59:35;48.90;;;27.95;;
56233;SDS011;42141;53.240;6.580;2023-02-15T09:02:01;55.25;;;28.35;;
56233;SDS011;42141;53.240;6.580;2023-02-15T09:04:28;45.03;;;28.08;;
56233;SDS011;42141;53.240;6.580;2023-02-15T09:06:53;45.60;;;28.63;;
56233;SDS011;42141;53.240;6.580;2023-02-15T09:09:20;46.42;;;27.50;;
56233;SDS011;42141;53.240;6.580;2023-02-15T09:11:47;45.35;;;28.30;;
56233;SDS011;42141;53.240;6.580;2023-02-15T09:14:18;43.03;;;26.00;;
56233;SDS011;42141;53.240;6.580;2023-02-15T09:16:46;44.20;;;26.23;;
56233;SDS011;42141;53.240;6.580;2023-02-15T09:19:17;48.42;;;26.77;;
56233;SDS011;42141;53.240;6.580;2023-02-15T09:21:45;43.85;;;25.90;;
56233;SDS011;42141;53.240;6.580;2023-02-15T09:24:12;43.10;;;27.25;;
56233;SDS011;42141;53.240;6.580;2023-02-15T09:26:40;38.40;;;24.15;;
56233;SDS011;42141;53.240;6.580;2023-02-15T09:29:09;39.88;;;25.98;;
56233;SDS011;42141;53.240;6.580;2023-02-15T09:31:37;43.55;;;23.90;;
56233;SDS011;42141;53.240;6.580;2023-02-15T09:34:06;38.03;;;25.08;;
56233;SDS011;42141;53.240;6.580;2023-02-15T09:36:36;39.90;;;22.88;;
56233;SDS011;42141;53.240;6.580;2023-02-15T09:52:48;31.73;;;21.48;;
56233;SDS011;42141;53.240;6.580;2023-02-15T09:58:23;42.25;;;22.67;;
56233;SDS011;42141;53.240;6.580;2023-02-15T10:06:59;33.30;;;21.70;;
56233;SDS011;42141;53.240;6.580;2023-02-15T10:20:23;36.67;;;21.55;;
56233;SDS011;42141;53.240;6.580;2023-02-15T10:23:15;36.72;;;22.30;;
56233;SDS011;42141;53.240;6.580;2023-02-15T10:31:34;33.13;;;21.83;;
56233;SDS011;42141;53.240;6.580;2023-02-15T10:44:55;37.22;;;20.95;;
56233;SDS011;42141;53.240;6.580;2023-02-15T11:01:06;35.17;;;20.70;;
56233;SDS011;42141;53.240;6.580;2023-02-15T11:06:43;33.55;;;21.58;;
56233;SDS011;42141;53.240;6.580;2023-02-15T11:09:19;37.33;;;20.60;;
56233;SDS011;42141;53.240;6.580;2023-02-15T11:11:51;32.33;;;20.98;;
56233;SDS011;42141;53.240;6.580;2023-02-15T11:16:57;32.85;;;20.92;;
56233;SDS011;42141;53.240;6.580;2023-02-15T11:19:34;35.75;;;21.35;;
56233;SDS011;42141;53.240;6.580;2023-02-15T11:22:05;34.40;;;22.23;;
56233;SDS011;42141;53.240;6.580;2023-02-15T11:24:40;36.47;;;21.98;;
56233;SDS011;42141;53.240;6.580;2023-02-15T11:29:48;37.80;;;21.15;;
56233;SDS011;42141;53.240;6.580;2023-02-15T11:32:26;39.63;;;22.42;;
56233;SDS011;42141;53.240;6.580;2023-02-15T11:35:10;38.67;;;20.13;;
56233;SDS011;42141;53.240;6.580;2023-02-15T11:40:32;39.50;;;22.02;;
56233;SDS011;42141;53.240;6.580;2023-02-15T11:42:59;40.15;;;23.17;;
56233;SDS011;42141;53.240;6.580;2023-02-15T11:45:30;36.35;;;21.77;;
56233;SDS011;42141;53.240;6.580;2023-02-15T11:47:57;37.28;;;22.85;;
56233;SDS011;42141;53.240;6.580;2023-02-15T11:50:29;36.17;;;21.50;;
56233;SDS011;42141;53.240;6.580;2023-02-15T11:53:00;35.97;;;21.30;;
56233;SDS011;42141;53.240;6.580;2023-02-15T11:55:29;38.30;;;22.73;;
56233;SDS011;42141;53.240;6.580;2023-02-15T12:00:45;37.05;;;20.92;;
56233;SDS011;42141;53.240;6.580;2023-02-15T12:03:17;38.47;;;21.13;;
56233;SDS011;42141;53.240;6.580;2023-02-15T12:06:03;41.13;;;23.08;;
56233;SDS011;42141;53.240;6.580;2023-02-15T12:08:37;40.50;;;22.33;;
56233;SDS011;42141;53.240;6.580;2023-02-15T12:11:07;110.47;;;55.10;;
56233;SDS011;42141;53.240;6.580;2023-02-15T12:13:37;143.27;;;63.70;;
56233;SDS011;42141;53.240;6.580;2023-02-15T12:16:21;120.35;;;60.20;;
56233;SDS011;42141;53.240;6.580;2023-02-15T12:18:47;81.95;;;40.42;;
56233;SDS011;42141;53.240;6.580;2023-02-15T12:21:27;68.53;;;38.30;;
56233;SDS011;42141;53.240;6.580;2023-02-15T12:23:56;78.40;;;40.70;;
56233;SDS011;42141;53.240;6.580;2023-02-15T12:26:26;93.80;;;44.00;;
56233;SDS011;42141;53.240;6.580;2023-02-15T12:29:01;118.97;;;57.33;;
56233;SDS011;42141;53.240;6.580;2023-02-15T12:31:41;78.82;;;37.38;;
56233;SDS011;42141;53.240;6.580;2023-02-15T12:34:18;64.20;;;33.35;;
56233;SDS011;42141;53.240;6.580;2023-02-15T12:36:49;78.55;;;40.67;;
56233;SDS011;42141;53.240;6.580;2023-02-15T12:39:26;42.28;;;23.42;;
56233;SDS011;42141;53.240;6.580;2023-02-15T12:41:57;45.00;;;23.90;;
56233;SDS011;42141;53.240;6.580;2023-02-15T12:44:39;29.90;;;16.65;;
56233;SDS011;42141;53.240;6.580;2023-02-15T12:47:21;96.05;;;46.67;;
56233;SDS011;42141;53.240;6.580;2023-02-15T12:50:34;82.18;;;38.55;;
56233;SDS011;42141;53.240;6.580;2023-02-15T12:52:48;37.42;;;22.02;;
56233;SDS011;42141;53.240;6.580;2023-02-15T12:55:20;38.53;;;21.23;;
56233;SDS011;42141;53.240;6.580;2023-02-15T13:00:43;42.70;;;23.00;;
56233;SDS011;42141;53.240;6.580;2023-02-15T13:03:20;39.63;;;23.42;;
56233;SDS011;42141;53.240;6.580;2023-02-15T13:05:51;46.28;;;22.75;;
56233;SDS011;42141;53.240;6.580;2023-02-15T13:08:37;39.33;;;21.98;;
56233;SDS011;42141;53.240;6.580;2023-02-15T13:11:11;46.22;;;24.95;;
56233;SDS011;42141;53.240;6.580;2023-02-15T13:13:47;41.75;;;23.98;;
56233;SDS011;42141;53.240;6.580;2023-02-15T13:16:21;44.55;;;24.73;;
56233;SDS011;42141;53.240;6.580;2023-02-15T13:20:04;49.60;;;24.25;;
56233;SDS011;42141;53.240;6.580;2023-02-15T13:21:59;42.05;;;24.48;;
56233;SDS011;42141;53.240;6.580;2023-02-15T13:24:33;41.78;;;23.55;;
56233;SDS011;42141;53.240;6.580;2023-02-15T13:27:00;43.50;;;23.40;;
56233;SDS011;42141;53.240;6.580;2023-02-15T13:29:30;44.80;;;24.35;;
56233;SDS011;42141;53.240;6.580;2023-02-15T13:32:04;40.20;;;23.52;;
56233;SDS011;42141;53.240;6.580;2023-02-15T13:34:46;42.38;;;24.02;;
56233;SDS011;42141;53.240;6.580;2023-02-15T13:42:38;38.17;;;22.63;;
56233;SDS011;42141;53.240;6.580;2023-02-15T13:47:46;48.75;;;24.83;;
56233;SDS011;42141;53.240;6.580;2023-02-15T13:53:27;41.70;;;22.83;;
56233;SDS011;42141;53.240;6.580;2023-02-15T14:15:09;45.78;;;21.92;;
56233;SDS011;42141;53.240;6.580;2023-02-15T14:20:19;39.03;;;23.05;;
56233;SDS011;42141;53.240;6.580;2023-02-15T14:25:30;40.70;;;22.98;;
56233;SDS011;42141;53.240;6.580;2023-02-15T14:30:44;36.63;;;21.20;;
56233;SDS011;42141;53.240;6.580;2023-02-15T14:35:39;36.65;;;21.33;;
56233;SDS011;42141;53.240;6.580;2023-02-15T14:41:12;37.28;;;20.85;;
56233;SDS011;42141;53.240;6.580;2023-02-15T14:44:21;37.70;;;22.85;;
56233;SDS011;42141;53.240;6.580;2023-02-15T14:47:16;38.47;;;20.38;;
56233;SDS011;42141;53.240;6.580;2023-02-15T14:49:49;42.25;;;21.77;;
56233;SDS011;42141;53.240;6.580;2023-02-15T14:52:15;39.38;;;21.55;;
56233;SDS011;42141;53.240;6.580;2023-02-15T15:02:23;40.92;;;22.20;;
56233;SDS011;42141;53.240;6.580;2023-02-15T15:04:59;34.17;;;19.75;;
56233;SDS011;42141;53.240;6.580;2023-02-15T15:07:42;38.35;;;19.80;;
56233;SDS011;42141;53.240;6.580;2023-02-15T15:20:42;34.60;;;19.65;;
56233;SDS011;42141;53.240;6.580;2023-02-15T15:25:44;47.88;;;22.73;;
56233;SDS011;42141;53.240;6.580;2023-02-15T15:30:59;39.15;;;20.65;;
56233;SDS011;42141;53.240;6.580;2023-02-15T15:50:43;33.78;;;19.95;;
56233;SDS011;42141;53.240;6.580;2023-02-15T15:53:19;39.65;;;21.10;;
56233;SDS011;42141;53.240;6.580;2023-02-15T15:55:47;40.15;;;21.75;;
56233;SDS011;42141;53.240;6.580;2023-02-15T15:58:16;37.45;;;20.25;;
56233;SDS011;42141;53.240;6.580;2023-02-15T16:00:48;36.17;;;22.48;;
56233;SDS011;42141;53.240;6.580;2023-02-15T16:03:15;33.83;;;20.48;;
56233;SDS011;42141;53.240;6.580;2023-02-15T16:05:45;43.10;;;21.20;;
56233;SDS011;42141;53.240;6.580;2023-02-15T16:08:10;30.45;;;20.40;;
56233;SDS011;42141;53.240;6.580;2023-02-15T16:10:36;37.83;;;22.60;;
56233;SDS011;42141;53.240;6.580;2023-02-15T16:13:04;36.17;;;22.00;;
56233;SDS011;42141;53.240;6.580;2023-02-15T16:15:34;41.33;;;21.88;;
56233;SDS011;42141;53.240;6.580;2023-02-15T16:18:10;39.03;;;21.70;;
56233;SDS011;42141;53.240;6.580;2023-02-15T16:20:42;38.85;;;21.50;;
56233;SDS011;42141;53.240;6.580;2023-02-15T16:26:09;38.40;;;21.50;;
56233;SDS011;42141;53.240;6.580;2023-02-15T16:28:56;40.03;;;21.30;;
56233;SDS011;42141;53.240;6.580;2023-02-15T16:31:23;34.25;;;21.55;;
56233;SDS011;42141;53.240;6.580;2023-02-15T16:33:51;35.25;;;21.30;;
56233;SDS011;42141;53.240;6.580;2023-02-15T16:36:20;39.53;;;22.75;;
56233;SDS011;42141;53.240;6.580;2023-02-15T16:43:55;40.10;;;22.20;;
56233;SDS011;42141;53.240;6.580;2023-02-15T16:46:27;41.90;;;22.70;;
56233;SDS011;42141;53.240;6.580;2023-02-15T16:48:57;38.50;;;22.45;;
56233;SDS011;42141;53.240;6.580;2023-02-15T16:51:30;41.88;;;23.85;;
56233;SDS011;42141;53.240;6.580;2023-02-15T16:54:00;38.92;;;22.52;;
56233;SDS011;42141;53.240;6.580;2023-02-15T16:56:31;45.42;;;22.80;;
56233;SDS011;42141;53.240;6.580;2023-02-15T16:58:58;42.60;;;23.02;;
56233;SDS011;42141;53.240;6.580;2023-02-15T17:01:29;44.60;;;24.75;;
56233;SDS011;42141;53.240;6.580;2023-02-15T17:07:12;40.42;;;23.65;;
56233;SDS011;42141;53.240;6.580;2023-02-15T17:15:32;41.45;;;23.50;;
56233;SDS011;42141;53.240;6.580;2023-02-15T17:18:00;39.28;;;23.05;;
56233;SDS011;42141;53.240;6.580;2023-02-15T17:20:33;37.92;;;22.42;;
56233;SDS011;42141;53.240;6.580;2023-02-15T17:23:03;49.15;;;23.83;;
56233;SDS011;42141;53.240;6.580;2023-02-15T17:25:37;43.72;;;25.98;;
56233;SDS011;42141;53.240;6.580;2023-02-15T17:28:04;42.70;;;24.20;;
56233;SDS011;42141;53.240;6.580;2023-02-15T17:30:40;39.95;;;24.15;;
56233;SDS011;42141;53.240;6.580;2023-02-15T17:33:17;37.40;;;22.02;;
56233;SDS011;42141;53.240;6.580;2023-02-15T17:38:59;40.95;;;24.30;;
56233;SDS011;42141;53.240;6.580;2023-02-15T17:41:27;38.95;;;23.45;;
56233;SDS011;42141;53.240;6.580;2023-02-15T17:43:59;43.83;;;24.02;;
56233;SDS011;42141;53.240;6.580;2023-02-15T17:46:25;40.13;;;23.17;;
56233;SDS011;42141;53.240;6.580;2023-02-15T17:48:55;39.30;;;22.75;;
56233;SDS011;42141;53.240;6.580;2023-02-15T17:51:21;36.95;;;22.52;;
56233;SDS011;42141;53.240;6.580;2023-02-15T17:53:48;39.97;;;23.92;;
56233;SDS011;42141;53.240;6.580;2023-02-15T17:56:32;39.83;;;24.50;;
56233;SDS011;42141;53.240;6.580;2023-02-15T17:59:01;45.60;;;24.20;;
56233;SDS011;42141;53.240;6.580;2023-02-15T18:01:31;42.20;;;23.92;;
56233;SDS011;42141;53.240;6.580;2023-02-15T18:04:19;42.15;;;24.00;;
56233;SDS011;42141;53.240;6.580;2023-02-15T18:07:04;47.80;;;24.67;;
56233;SDS011;42141;53.240;6.580;2023-02-15T18:09:48;45.95;;;24.80;;
56233;SDS011;42141;53.240;6.580;2023-02-15T18:12:33;39.90;;;23.85;;
56233;SDS011;42141;53.240;6.580;2023-02-15T18:15:03;40.42;;;24.35;;
56233;SDS011;42141;53.240;6.580;2023-02-15T18:20:05;50.42;;;24.73;;
56233;SDS011;42141;53.240;6.580;2023-02-15T18:22:36;38.72;;;21.88;;